Airport ICAO


14:04 UTC

9°C

Scattered clouds


An affordable passengers' Moving Map for your aircraft. Made for the iPad and the iPhone
More information here

EGLF Farnborough


London UNITED KINGDOM   VFR


METAR EGLF 101350Z 30006KT 9999 FEW028 SCT042 09/04 Q1027 0h14min

TAF EGLF 101057Z 1012/1021 28008KT 9999 BKN040 3h07min





NOTAMS

OPEN